createdAt,value
2019-04-05T00:01:58.013Z,30.10
2019-04-05T00:04:42.923Z,33.27
2019-04-05T00:07:27.926Z,28.63
2019-04-05T00:10:13.361Z,32.37
2019-04-05T00:12:58.162Z,27.83
2019-04-05T00:15:44.014Z,30.70
2019-04-05T00:18:28.993Z,29.27
2019-04-05T00:21:13.952Z,29.00
2019-04-05T00:23:58.942Z,30.73
2019-04-05T00:26:43.951Z,30.63
2019-04-05T00:29:28.531Z,32.40
2019-04-05T00:32:13.116Z,29.93
2019-04-05T00:34:57.803Z,32.10
2019-04-05T00:37:42.386Z,34.00
2019-04-05T00:40:26.980Z,31.90
2019-04-05T00:43:11.473Z,31.47
2019-04-05T00:45:56.374Z,34.87
2019-04-05T00:48:41.314Z,35.00
2019-04-05T00:51:25.967Z,37.53
2019-04-05T00:54:10.891Z,36.47
2019-04-05T00:56:55.543Z,35.67
2019-04-05T00:59:40.544Z,41.13
2019-04-05T01:02:25.533Z,40.93
2019-04-05T01:05:10.556Z,40.03
2019-04-05T01:07:55.496Z,44.00
2019-04-05T01:10:40.421Z,45.73
2019-04-05T01:13:25.497Z,46.27
2019-04-05T01:16:10.442Z,43.23
2019-04-05T01:18:55.116Z,44.97
2019-04-05T01:21:43.869Z,43.50
2019-04-05T01:24:28.923Z,42.53
2019-04-05T01:27:13.476Z,43.20
2019-04-05T01:29:58.541Z,44.77
2019-04-05T01:32:43.101Z,42.07
2019-04-05T01:35:27.762Z,39.60
2019-04-05T01:38:12.626Z,43.17
2019-04-05T01:40:58.115Z,45.33
2019-04-05T01:43:43.086Z,45.97
2019-04-05T01:46:27.798Z,42.80
2019-04-05T01:49:12.793Z,39.90
2019-04-05T01:51:57.806Z,37.40
2019-04-05T01:54:42.382Z,35.57
2019-04-05T01:57:26.923Z,33.67
2019-04-05T02:00:11.973Z,34.30
2019-04-05T02:02:56.707Z,32.00
2019-04-05T02:05:41.730Z,32.87
2019-04-05T02:08:26.627Z,31.97
2019-04-05T02:11:11.895Z,31.63
2019-04-05T02:13:57.086Z,35.73
2019-04-05T02:16:41.826Z,30.33
2019-04-05T02:19:26.846Z,30.23
2019-04-05T02:22:11.445Z,31.10
2019-04-05T02:24:56.966Z,30.83
2019-04-05T02:27:41.574Z,32.40
2019-04-05T02:30:26.597Z,33.70
2019-04-05T02:33:11.673Z,33.60
2019-04-05T02:35:56.252Z,32.83
2019-04-05T02:38:40.921Z,30.77
2019-04-05T02:41:26.472Z,32.07
2019-04-05T02:44:12.748Z,32.13
2019-04-05T02:46:58.273Z,29.37
2019-04-05T02:49:43.677Z,32.70
2019-04-05T02:52:28.816Z,29.67
2019-04-05T02:55:13.881Z,31.07
2019-04-05T02:58:01.295Z,28.40
2019-04-05T03:00:45.957Z,32.60
2019-04-05T03:03:30.891Z,32.53
2019-04-05T03:06:16.141Z,33.20
2019-04-05T03:09:02.872Z,37.10
2019-04-05T03:11:48.025Z,37.27
2019-04-05T03:14:33.892Z,42.37
2019-04-05T03:17:20.749Z,39.70
2019-04-05T03:20:06.013Z,42.53
2019-04-05T03:22:50.697Z,39.80
2019-04-05T03:25:36.240Z,43.33
2019-04-05T03:28:22.062Z,41.30
2019-04-05T03:31:06.913Z,41.40
2019-04-05T03:33:51.732Z,42.93
2019-04-05T03:36:37.162Z,43.60
2019-04-05T03:39:22.323Z,44.37
2019-04-05T03:42:07.473Z,41.13
2019-04-05T03:44:52.606Z,46.67
2019-04-05T03:47:37.800Z,47.13
2019-04-05T03:50:22.893Z,44.23
2019-04-05T03:53:07.736Z,46.63
2019-04-05T03:55:52.990Z,44.30
2019-04-05T03:58:37.998Z,45.20
2019-04-05T04:01:23.191Z,48.63
2019-04-05T04:04:08.403Z,46.70
2019-04-05T04:06:54.112Z,49.60
2019-04-05T04:09:38.735Z,44.70
2019-04-05T04:12:24.103Z,44.00
2019-04-05T04:15:14.848Z,46.00
2019-04-05T04:18:00.116Z,47.83
2019-04-05T04:20:48.521Z,49.27
2019-04-05T04:23:34.172Z,46.17
2019-04-05T04:26:19.567Z,49.30
2019-04-05T04:29:05.155Z,47.80
2019-04-05T04:31:50.038Z,49.47
2019-04-05T04:34:35.055Z,50.17
2019-04-05T04:37:20.345Z,49.23
2019-04-05T04:40:05.830Z,51.70
2019-04-05T04:42:51.003Z,49.37
2019-04-05T04:45:36.256Z,51.47
2019-04-05T04:48:21.227Z,49.87
2019-04-05T04:51:06.565Z,49.10
2019-04-05T04:53:52.026Z,49.40
2019-04-05T04:56:37.494Z,55.00
2019-04-05T04:59:22.176Z,54.27
2019-04-05T05:02:07.291Z,48.10
2019-04-05T05:04:52.503Z,47.07
2019-04-05T05:07:37.801Z,46.40
2019-04-05T05:10:22.691Z,51.83
2019-04-05T05:13:07.890Z,46.17
2019-04-05T05:15:52.851Z,50.97
2019-04-05T05:18:37.956Z,47.93
2019-04-05T05:21:22.778Z,45.93
2019-04-05T05:24:08.521Z,47.57
2019-04-05T05:26:53.341Z,47.57
2019-04-05T05:29:38.095Z,48.50
2019-04-05T05:32:23.792Z,46.60
2019-04-05T05:35:09.212Z,45.90
2019-04-05T05:37:53.982Z,45.67
2019-04-05T05:40:39.078Z,49.90
2019-04-05T05:43:24.068Z,46.43
2019-04-05T05:46:09.254Z,43.77
2019-04-05T05:48:54.351Z,45.13
2019-04-05T05:51:39.305Z,48.63
2019-04-05T05:54:23.940Z,47.43
2019-04-05T05:57:08.749Z,40.47
2019-04-05T05:59:53.774Z,44.63
2019-04-05T06:02:38.779Z,45.33
2019-04-05T06:05:24.292Z,43.17
2019-04-05T06:08:08.925Z,45.83
2019-04-05T06:10:53.554Z,42.13
2019-04-05T06:13:37.924Z,41.40
2019-04-05T06:16:22.470Z,42.87
2019-04-05T06:19:07.390Z,40.27
2019-04-05T06:21:52.768Z,41.80
2019-04-05T06:24:37.634Z,45.80
2019-04-05T06:27:22.591Z,43.43
2019-04-05T06:30:07.818Z,43.97
2019-04-05T06:32:52.629Z,43.60
2019-04-05T06:35:37.274Z,43.37
2019-04-05T06:38:21.845Z,43.83
2019-04-05T06:41:06.717Z,45.10
2019-04-05T06:43:51.567Z,42.17
2019-04-05T06:46:36.507Z,40.33
2019-04-05T06:49:21.291Z,39.80
2019-04-05T06:52:06.029Z,43.33
2019-04-05T06:54:50.988Z,38.97
2019-04-05T06:57:35.891Z,40.30
2019-04-05T07:00:27.471Z,40.53
2019-04-05T07:03:13.641Z,38.83
2019-04-05T07:05:58.275Z,37.97
2019-04-05T07:08:53.042Z,38.80
2019-04-05T07:11:29.677Z,39.37
2019-04-05T07:14:14.904Z,37.30
2019-04-05T07:16:59.917Z,39.27
2019-04-05T07:19:44.859Z,37.77
2019-04-05T07:22:38.458Z,39.37
2019-04-05T07:25:16.744Z,39.70
2019-04-05T07:28:01.836Z,41.23
2019-04-05T07:30:46.531Z,40.33
2019-04-05T07:33:31.042Z,38.70
2019-04-05T07:36:16.032Z,41.37
2019-04-05T07:39:00.829Z,36.60
2019-04-05T07:41:45.710Z,39.97
2019-04-05T07:44:30.189Z,38.23
2019-04-05T07:47:14.830Z,37.13
2019-04-05T07:49:59.644Z,35.40
2019-04-05T07:52:44.468Z,33.43
2019-04-05T07:55:28.879Z,32.60
2019-04-05T07:58:13.485Z,29.07
2019-04-05T08:00:58.184Z,28.13
2019-04-05T08:03:43.224Z,31.93
2019-04-05T08:06:28.177Z,29.17
2019-04-05T08:09:14.738Z,32.03
2019-04-05T08:11:59.866Z,29.73
2019-04-05T08:14:44.983Z,29.83
2019-04-05T08:17:29.736Z,26.73
2019-04-05T08:20:14.970Z,31.27
2019-04-05T08:22:59.554Z,29.73
2019-04-05T08:25:44.725Z,26.63
2019-04-05T08:28:29.772Z,26.43
2019-04-05T08:31:14.786Z,28.63
2019-04-05T08:33:59.884Z,27.27
2019-04-05T08:36:44.809Z,26.00
2019-04-05T08:39:30.073Z,24.23
2019-04-05T08:42:14.825Z,23.50
2019-04-05T08:44:59.670Z,25.37
2019-04-05T08:47:44.381Z,27.13
2019-04-05T08:50:29.164Z,23.90
2019-04-05T08:53:14.004Z,24.87
2019-04-05T08:55:58.906Z,24.33
2019-04-05T08:58:43.468Z,22.73
2019-04-05T09:01:28.727Z,27.47
2019-04-05T09:04:13.965Z,23.37
2019-04-05T09:06:58.733Z,23.43
2019-04-05T09:09:43.435Z,23.20
2019-04-05T09:12:28.043Z,21.80
2019-04-05T09:15:13.090Z,21.53
2019-04-05T09:17:58.151Z,24.40
2019-04-05T09:20:42.575Z,23.30
2019-04-05T09:23:27.183Z,23.67
2019-04-05T09:26:11.731Z,22.60
2019-04-05T09:28:56.635Z,26.30
2019-04-05T09:31:41.986Z,24.33
2019-04-05T09:34:27.036Z,24.70
2019-04-05T09:37:12.389Z,24.90
2019-04-05T09:39:57.295Z,23.23
2019-04-05T09:42:41.908Z,23.33
2019-04-05T09:45:26.323Z,23.30
2019-04-05T09:48:10.969Z,21.70
2019-04-05T09:50:56.091Z,24.33
2019-04-05T09:53:40.951Z,22.53
2019-04-05T09:56:25.674Z,24.07
2019-04-05T09:59:10.924Z,24.33
2019-04-05T10:01:55.748Z,24.70
2019-04-05T10:04:40.420Z,23.47
2019-04-05T10:07:25.461Z,25.37
2019-04-05T10:10:10.506Z,25.07
2019-04-05T10:12:55.495Z,24.80
2019-04-05T10:15:40.491Z,22.50
2019-04-05T10:18:25.225Z,22.03
2019-04-05T10:21:09.875Z,22.80
2019-04-05T10:23:54.916Z,23.87
2019-04-05T10:26:39.639Z,22.47
2019-04-05T10:29:24.195Z,23.77
2019-04-05T10:32:09.014Z,25.53
2019-04-05T10:34:53.923Z,26.53
2019-04-05T10:37:38.440Z,24.27
2019-04-05T10:40:23.382Z,24.47
2019-04-05T10:43:08.305Z,25.67
2019-04-05T10:45:53.035Z,27.10
2019-04-05T10:48:38.354Z,23.93
2019-04-05T10:51:23.390Z,26.33
2019-04-05T10:54:09.531Z,26.60
2019-04-05T10:56:54.427Z,22.40
2019-04-05T10:59:39.420Z,25.47
2019-04-05T11:02:24.170Z,26.00
2019-04-05T11:05:09.340Z,25.00
2019-04-05T11:07:54.200Z,23.90
2019-04-05T11:10:38.898Z,26.67
2019-04-05T11:13:24.150Z,25.70
2019-04-05T11:16:09.059Z,26.17
2019-04-05T11:18:53.689Z,28.87
2019-04-05T11:21:38.256Z,29.27
2019-04-05T11:24:22.873Z,29.93
2019-04-05T11:27:07.379Z,27.73
2019-04-05T11:29:51.814Z,27.37
2019-04-05T11:32:36.844Z,23.63
2019-04-05T11:35:21.535Z,27.77
2019-04-05T11:38:06.575Z,28.13
2019-04-05T11:40:52.049Z,28.70
2019-04-05T11:43:38.144Z,25.87
2019-04-05T11:46:23.149Z,28.23
2019-04-05T11:49:08.370Z,27.57
2019-04-05T11:51:53.083Z,28.83
2019-04-05T11:54:38.131Z,30.60
2019-04-05T11:57:23.092Z,30.10
2019-04-05T12:00:13.543Z,26.40
2019-04-05T12:03:00.652Z,26.27
2019-04-05T12:05:45.548Z,33.17
2019-04-05T12:08:30.062Z,30.37
2019-04-05T12:11:14.710Z,27.77
2019-04-05T12:13:59.252Z,36.80
2019-04-05T12:16:44.448Z,29.83
2019-04-05T12:19:29.430Z,31.50
2019-04-05T12:22:15.198Z,32.30
2019-04-05T12:25:00.567Z,34.33
2019-04-05T12:27:46.920Z,30.33
2019-04-05T12:30:32.007Z,31.10
2019-04-05T12:33:19.338Z,35.17
2019-04-05T12:36:03.807Z,33.30
2019-04-05T12:38:48.690Z,33.20
2019-04-05T12:41:33.805Z,35.00
2019-04-05T12:44:18.485Z,34.00
2019-04-05T12:47:03.603Z,34.30
2019-04-05T12:49:48.534Z,34.77
2019-04-05T12:52:33.625Z,38.67
2019-04-05T12:55:18.718Z,40.07
2019-04-05T12:58:03.870Z,37.23
2019-04-05T13:00:48.998Z,35.30
2019-04-05T13:03:33.969Z,42.40
2019-04-05T13:06:19.903Z,40.50
2019-04-05T13:09:07.531Z,39.57
2019-04-05T13:11:52.210Z,35.10
2019-04-05T13:14:37.719Z,38.50
2019-04-05T13:17:22.768Z,36.03
2019-04-05T13:20:07.941Z,38.23
2019-04-05T13:22:53.344Z,41.50
2019-04-05T13:25:38.828Z,38.00
2019-04-05T13:28:25.406Z,41.77
2019-04-05T13:31:10.755Z,43.03
2019-04-05T13:33:55.731Z,42.10
2019-04-05T13:36:40.965Z,36.87
2019-04-05T13:39:29.372Z,37.30
2019-04-05T13:42:12.276Z,36.57
2019-04-05T13:44:57.187Z,38.87
2019-04-05T13:47:42.496Z,34.77
2019-04-05T13:50:27.470Z,39.00
2019-04-05T13:53:12.580Z,36.53
2019-04-05T13:55:57.751Z,38.43
2019-04-05T13:58:46.109Z,40.23
2019-04-05T14:01:29.579Z,39.33
2019-04-05T14:04:16.952Z,37.00
2019-04-05T14:07:03.578Z,35.30
2019-04-05T14:09:47.669Z,39.90
2019-04-05T14:12:32.073Z,35.40
2019-04-05T14:15:17.023Z,36.77
2019-04-05T14:18:01.840Z,35.63
2019-04-05T14:20:49.681Z,37.23
2019-04-05T14:23:33.102Z,38.80
2019-04-05T14:26:17.983Z,40.53
2019-04-05T14:29:03.717Z,33.07
2019-04-05T14:31:48.945Z,33.97
2019-04-05T14:34:33.746Z,35.57
2019-04-05T14:37:21.345Z,34.33
2019-04-05T14:40:06.417Z,30.43
2019-04-05T14:42:51.166Z,32.90
2019-04-05T14:45:36.285Z,33.67
2019-04-05T14:48:21.343Z,37.30
2019-04-05T14:51:06.652Z,32.03
2019-04-05T14:53:51.501Z,32.40
2019-04-05T14:56:36.323Z,34.37
2019-04-05T14:59:21.599Z,34.53
2019-04-05T15:02:06.706Z,34.57
2019-04-05T15:04:51.666Z,33.67
2019-04-05T15:07:37.940Z,31.83
2019-04-05T15:10:24.866Z,35.63
2019-04-05T15:13:09.372Z,37.17
2019-04-05T15:15:55.932Z,32.17
2019-04-05T15:18:41.129Z,33.07
2019-04-05T15:21:26.206Z,36.47
2019-04-05T15:24:11.331Z,37.17
2019-04-05T15:26:56.478Z,35.00
2019-04-05T15:29:41.502Z,35.77
2019-04-05T15:32:26.863Z,34.37
2019-04-05T15:35:11.479Z,36.63
2019-04-05T15:37:56.494Z,33.17
2019-04-05T15:40:41.849Z,35.63
2019-04-05T15:43:26.897Z,38.47
2019-04-05T15:46:12.246Z,35.97
2019-04-05T15:48:57.043Z,36.47
2019-04-05T15:51:41.984Z,33.70
2019-04-05T15:54:28.880Z,34.57
2019-04-05T15:57:13.029Z,38.23
2019-04-05T15:59:58.214Z,35.83
2019-04-05T16:02:43.337Z,33.43
2019-04-05T16:05:28.513Z,34.17
2019-04-05T16:08:16.353Z,36.10
2019-04-05T16:11:01.174Z,37.73
2019-04-05T16:13:46.408Z,40.00
2019-04-05T16:16:31.369Z,37.87
2019-04-05T16:19:16.712Z,37.23
2019-04-05T16:22:01.698Z,37.97
2019-04-05T16:24:46.906Z,33.60
2019-04-05T16:27:31.918Z,33.27
2019-04-05T16:30:17.084Z,34.33
2019-04-05T16:33:02.203Z,36.27
2019-04-05T16:35:47.246Z,39.53
2019-04-05T16:38:32.293Z,38.33
2019-04-05T16:41:16.894Z,36.43
2019-04-05T16:44:02.357Z,39.13
2019-04-05T16:46:46.943Z,39.93
2019-04-05T16:49:32.161Z,39.67
2019-04-05T16:52:17.281Z,40.90
2019-04-05T16:55:03.522Z,43.17
2019-04-05T16:57:48.674Z,41.70
2019-04-05T17:00:33.787Z,39.67
2019-04-05T17:03:18.755Z,47.13
2019-04-05T17:06:03.525Z,44.67
2019-04-05T17:08:48.444Z,44.57
2019-04-05T17:11:33.648Z,37.93
2019-04-05T17:14:18.756Z,43.00
2019-04-05T17:17:03.803Z,43.63
2019-04-05T17:19:48.944Z,42.43
2019-04-05T17:22:34.042Z,42.70
2019-04-05T17:25:19.317Z,44.57
2019-04-05T17:28:04.390Z,48.80
2019-04-05T17:30:49.836Z,50.17
2019-04-05T17:33:34.348Z,50.10
2019-04-05T17:36:19.125Z,44.13
2019-04-05T17:39:05.751Z,50.13
2019-04-05T17:41:50.717Z,48.57
2019-04-05T17:44:35.827Z,51.73
2019-04-05T17:47:20.765Z,52.17
2019-04-05T17:50:06.498Z,50.00
2019-04-05T17:52:51.334Z,54.97
2019-04-05T17:55:36.273Z,57.63
2019-04-05T17:58:23.439Z,52.73
2019-04-05T18:01:08.646Z,50.37
2019-04-05T18:03:53.663Z,55.57
2019-04-05T18:06:38.493Z,49.57
2019-04-05T18:09:23.637Z,51.53
2019-04-05T18:12:08.633Z,55.73
2019-04-05T18:14:53.799Z,49.93
2019-04-05T18:17:38.921Z,58.40
2019-04-05T18:20:24.144Z,59.93
2019-04-05T18:23:09.057Z,60.47
2019-04-05T18:25:54.242Z,58.90
2019-04-05T18:28:39.310Z,61.40
2019-04-05T18:31:24.204Z,60.10
2019-04-05T18:34:08.997Z,65.87
2019-04-05T18:36:54.011Z,57.00
2019-04-05T18:39:39.155Z,66.17
2019-04-05T18:42:24.145Z,61.90
2019-04-05T18:45:09.035Z,56.57
2019-04-05T18:47:54.317Z,60.90
2019-04-05T18:50:39.258Z,66.67
2019-04-05T18:53:36.784Z,55.63
2019-04-05T18:56:11.325Z,59.20
2019-04-05T18:58:56.335Z,55.73
2019-04-05T19:01:41.334Z,59.10
2019-04-05T19:04:26.406Z,55.37
2019-04-05T19:07:11.740Z,61.17
2019-04-05T19:09:56.731Z,64.57
2019-04-05T19:12:41.980Z,58.30
2019-04-05T19:15:27.132Z,62.33
2019-04-05T19:18:12.144Z,62.23
2019-04-05T19:20:57.121Z,60.67
2019-04-05T19:23:50.722Z,62.30
2019-04-05T19:26:29.321Z,69.20
2019-04-05T19:29:14.253Z,63.37
2019-04-05T19:48:39.414Z,61.77
2019-04-05T19:51:24.535Z,67.63
2019-04-05T19:54:09.744Z,64.53
2019-04-05T19:56:54.887Z,65.20
2019-04-05T19:59:39.812Z,59.23
2019-04-05T20:02:25.095Z,61.47
2019-04-05T20:05:10.335Z,71.83
2019-04-05T20:07:55.401Z,75.60
2019-04-05T20:10:40.598Z,65.43
2019-04-05T20:13:25.437Z,68.20
2019-04-05T20:16:12.936Z,63.87
2019-04-05T20:18:57.821Z,62.67
2019-04-05T20:21:43.096Z,66.53
2019-04-05T20:24:28.524Z,74.47
2019-04-05T20:27:13.279Z,76.53
2019-04-05T20:29:58.494Z,66.60
2019-04-05T20:32:43.728Z,62.63
2019-04-05T20:35:28.808Z,73.03
2019-04-05T20:38:13.651Z,71.03
2019-04-05T20:40:58.411Z,66.77
2019-04-05T20:43:43.367Z,75.80
2019-04-05T20:46:28.024Z,76.60
2019-04-05T20:49:13.087Z,72.93
2019-04-05T20:51:57.824Z,75.87
2019-04-05T20:54:42.992Z,77.83
2019-04-05T20:57:27.970Z,69.67
2019-04-05T21:00:13.842Z,69.13
2019-04-05T21:02:58.929Z,70.93
2019-04-05T21:05:44.000Z,70.63
2019-04-05T21:08:29.081Z,72.40
2019-04-05T21:11:13.925Z,67.27
2019-04-05T21:13:59.145Z,66.57
2019-04-05T21:16:44.156Z,65.10
2019-04-05T21:19:29.502Z,70.00
2019-04-05T21:22:14.620Z,68.13
2019-04-05T21:24:59.621Z,71.57
2019-04-05T21:27:44.720Z,73.27
2019-04-05T21:30:29.855Z,69.87
2019-04-05T21:33:14.939Z,67.87
2019-04-05T21:36:00.067Z,77.43
2019-04-05T21:38:45.091Z,72.13
2019-04-05T21:41:29.878Z,76.70
2019-04-05T21:44:14.610Z,71.87
2019-04-05T21:46:59.464Z,82.60
2019-04-05T21:49:44.410Z,84.07
2019-04-05T21:52:29.749Z,73.30
2019-04-05T21:55:14.531Z,73.73
2019-04-05T21:57:59.524Z,78.60
2019-04-05T22:00:49.388Z,84.40
2019-04-05T22:03:34.552Z,76.97
2019-04-05T22:06:19.622Z,75.07
2019-04-05T22:09:07.478Z,69.10
2019-04-05T22:11:52.461Z,63.20
2019-04-05T22:14:37.166Z,64.10
2019-04-05T22:17:21.713Z,60.43
2019-04-05T22:20:06.410Z,60.23
2019-04-05T22:22:51.391Z,61.93
2019-04-05T22:25:36.574Z,65.70
2019-04-05T22:28:21.424Z,62.50
2019-04-05T22:31:06.702Z,64.33
2019-04-05T22:33:51.662Z,64.50
2019-04-05T22:36:36.296Z,62.90
2019-04-05T22:39:21.571Z,68.73
2019-04-05T22:42:07.020Z,72.73
2019-04-05T22:44:52.100Z,71.90
2019-04-05T22:47:36.593Z,74.97
2019-04-05T22:50:21.767Z,69.97
2019-04-05T22:53:06.948Z,75.47
2019-04-05T22:55:52.020Z,75.93
2019-04-05T22:58:37.165Z,71.50
2019-04-05T23:01:22.188Z,79.60
2019-04-05T23:04:06.715Z,67.77
2019-04-05T23:06:52.005Z,75.40
2019-04-05T23:09:37.199Z,68.43
2019-04-05T23:12:22.325Z,73.83
2019-04-05T23:15:07.856Z,85.10
2019-04-05T23:17:52.631Z,82.70
2019-04-05T23:20:37.604Z,71.10
2019-04-05T23:23:22.427Z,73.00
2019-04-05T23:26:07.551Z,79.50
2019-04-05T23:28:52.659Z,72.87
2019-04-05T23:31:37.864Z,67.70
2019-04-05T23:34:23.080Z,70.07
2019-04-05T23:37:07.900Z,79.53
2019-04-05T23:39:52.568Z,70.27
2019-04-05T23:42:37.700Z,66.53
2019-04-05T23:45:22.455Z,73.97
2019-04-05T23:48:07.536Z,64.30
2019-04-05T23:50:52.328Z,74.60
2019-04-05T23:53:37.498Z,79.93
2019-04-05T23:56:22.540Z,71.07
2019-04-05T23:59:07.272Z,67.53
